sensor_id;sensor_type;location;lat;lon;timestamp;temperature;humidity
17437;DHT22;70275;52.198;5.422;2023-07-29T00:00:08;18.40;83.10
17437;DHT22;70275;52.198;5.422;2023-07-29T00:02:38;18.40;83.10
17437;DHT22;70275;52.198;5.422;2023-07-29T00:05:08;18.50;83.10
17437;DHT22;70275;52.198;5.422;2023-07-29T00:07:37;18.50;83.10
17437;DHT22;70275;52.198;5.422;2023-07-29T00:10:10;18.50;83.10
17437;DHT22;70275;52.198;5.422;2023-07-29T00:12:39;18.40;83.10
17437;DHT22;70275;52.198;5.422;2023-07-29T00:15:08;18.40;83.10
17437;DHT22;70275;52.198;5.422;2023-07-29T00:17:38;18.50;83.10
17437;DHT22;70275;52.198;5.422;2023-07-29T00:20:08;18.40;83.10
17437;DHT22;70275;52.198;5.422;2023-07-29T00:22:37;18.40;83.10
17437;DHT22;70275;52.198;5.422;2023-07-29T00:25:06;18.40;83.10
17437;DHT22;70275;52.198;5.422;2023-07-29T00:27:38;18.50;83.10
17437;DHT22;70275;52.198;5.422;2023-07-29T00:30:08;18.50;83.10
17437;DHT22;70275;52.198;5.422;2023-07-29T00:32:37;18.40;83.10
17437;DHT22;70275;52.198;5.422;2023-07-29T00:35:07;18.40;83.10
17437;DHT22;70275;52.198;5.422;2023-07-29T00:37:37;18.40;83.10
17437;DHT22;70275;52.198;5.422;2023-07-29T00:40:15;18.40;83.10
17437;DHT22;70275;52.198;5.422;2023-07-29T00:42:49;18.40;83.10
17437;DHT22;70275;52.198;5.422;2023-07-29T00:45:18;18.60;82.90
17437;DHT22;70275;52.198;5.422;2023-07-29T00:47:48;18.50;83.00
17437;DHT22;70275;52.198;5.422;2023-07-29T00:50:17;18.50;83.10
17437;DHT22;70275;52.198;5.422;2023-07-29T00:52:46;18.50;83.10
17437;DHT22;70275;52.198;5.422;2023-07-29T00:55:20;18.50;83.10
17437;DHT22;70275;52.198;5.422;2023-07-29T00:57:50;18.50;83.10
17437;DHT22;70275;52.198;5.422;2023-07-29T01:00:20;18.50;83.10
17437;DHT22;70275;52.198;5.422;2023-07-29T01:02:50;18.40;83.10
17437;DHT22;70275;52.198;5.422;2023-07-29T01:05:20;18.40;83.10
17437;DHT22;70275;52.198;5.422;2023-07-29T01:07:55;18.50;83.10
17437;DHT22;70275;52.198;5.422;2023-07-29T01:10:45;18.60;83.10
17437;DHT22;70275;52.198;5.422;2023-07-29T01:13:28;18.60;83.10
17437;DHT22;70275;52.198;5.422;2023-07-29T01:16:04;18.50;83.10
17437;DHT22;70275;52.198;5.422;2023-07-29T01:18:39;18.50;83.10
17437;DHT22;70275;52.198;5.422;2023-07-29T01:21:08;18.40;83.10
17437;DHT22;70275;52.198;5.422;2023-07-29T01:23:42;18.40;83.10
17437;DHT22;70275;52.198;5.422;2023-07-29T01:26:11;18.40;83.10
17437;DHT22;70275;52.198;5.422;2023-07-29T01:28:40;18.30;83.10
17437;DHT22;70275;52.198;5.422;2023-07-29T01:31:15;18.40;83.10
17437;DHT22;70275;52.198;5.422;2023-07-29T01:33:57;18.30;83.10
17437;DHT22;70275;52.198;5.422;2023-07-29T01:36:34;18.30;83.10
17437;DHT22;70275;52.198;5.422;2023-07-29T01:39:09;18.30;83.10
17437;DHT22;70275;52.198;5.422;2023-07-29T01:41:40;18.30;83.10
17437;DHT22;70275;52.198;5.422;2023-07-29T01:44:10;18.20;83.10
17437;DHT22;70275;52.198;5.422;2023-07-29T01:46:41;18.10;83.10
17437;DHT22;70275;52.198;5.422;2023-07-29T01:49:10;18.10;83.10
17437;DHT22;70275;52.198;5.422;2023-07-29T01:51:38;18.10;83.10
17437;DHT22;70275;52.198;5.422;2023-07-29T01:54:10;18.10;83.10
17437;DHT22;70275;52.198;5.422;2023-07-29T01:56:39;18.00;83.10
17437;DHT22;70275;52.198;5.422;2023-07-29T01:59:08;18.00;83.10
17437;DHT22;70275;52.198;5.422;2023-07-29T02:01:39;18.10;83.10
17437;DHT22;70275;52.198;5.422;2023-07-29T02:04:08;18.00;83.10
17437;DHT22;70275;52.198;5.422;2023-07-29T02:06:37;18.00;83.10
17437;DHT22;70275;52.198;5.422;2023-07-29T02:09:06;18.00;83.10
17437;DHT22;70275;52.198;5.422;2023-07-29T02:11:37;18.00;83.10
17437;DHT22;70275;52.198;5.422;2023-07-29T02:14:06;18.00;83.10
17437;DHT22;70275;52.198;5.422;2023-07-29T02:16:35;18.00;83.10
17437;DHT22;70275;52.198;5.422;2023-07-29T02:19:04;18.00;83.10
17437;DHT22;70275;52.198;5.422;2023-07-29T02:21:33;18.10;83.10
17437;DHT22;70275;52.198;5.422;2023-07-29T02:24:03;18.10;83.10
17437;DHT22;70275;52.198;5.422;2023-07-29T02:26:32;18.10;83.10
17437;DHT22;70275;52.198;5.422;2023-07-29T02:29:04;18.00;83.10
17437;DHT22;70275;52.198;5.422;2023-07-29T02:31:33;17.90;83.10
17437;DHT22;70275;52.198;5.422;2023-07-29T02:34:03;17.80;83.10
17437;DHT22;70275;52.198;5.422;2023-07-29T02:36:32;17.90;83.10
17437;DHT22;70275;52.198;5.422;2023-07-29T02:39:01;17.80;83.10
17437;DHT22;70275;52.198;5.422;2023-07-29T02:41:30;17.80;83.10
17437;DHT22;70275;52.198;5.422;2023-07-29T02:43:59;17.70;83.10
17437;DHT22;70275;52.198;5.422;2023-07-29T02:46:30;17.80;83.10
17437;DHT22;70275;52.198;5.422;2023-07-29T02:49:01;17.80;83.10
17437;DHT22;70275;52.198;5.422;2023-07-29T02:51:30;17.70;83.10
17437;DHT22;70275;52.198;5.422;2023-07-29T02:53:59;17.70;83.10
17437;DHT22;70275;52.198;5.422;2023-07-29T02:56:28;17.70;83.10
17437;DHT22;70275;52.198;5.422;2023-07-29T02:58:58;17.70;83.10
17437;DHT22;70275;52.198;5.422;2023-07-29T03:01:29;17.70;83.10
17437;DHT22;70275;52.198;5.422;2023-07-29T03:03:58;17.70;83.10
17437;DHT22;70275;52.198;5.422;2023-07-29T03:06:27;17.60;83.10
17437;DHT22;70275;52.198;5.422;2023-07-29T03:08:56;17.40;83.10
17437;DHT22;70275;52.198;5.422;2023-07-29T03:11:25;17.50;83.10
17437;DHT22;70275;52.198;5.422;2023-07-29T03:13:54;17.50;83.10
17437;DHT22;70275;52.198;5.422;2023-07-29T03:16:23;17.50;83.10
17437;DHT22;70275;52.198;5.422;2023-07-29T03:18:55;17.40;83.10
17437;DHT22;70275;52.198;5.422;2023-07-29T03:21:26;17.40;83.10
17437;DHT22;70275;52.198;5.422;2023-07-29T03:23:54;17.40;83.10
17437;DHT22;70275;52.198;5.422;2023-07-29T03:26:23;17.40;83.10
17437;DHT22;70275;52.198;5.422;2023-07-29T03:28:52;17.40;83.10
17437;DHT22;70275;52.198;5.422;2023-07-29T03:31:21;17.40;83.10
17437;DHT22;70275;52.198;5.422;2023-07-29T03:33:50;17.40;83.10
17437;DHT22;70275;52.198;5.422;2023-07-29T03:36:22;17.40;83.10
17437;DHT22;70275;52.198;5.422;2023-07-29T03:38:51;17.50;83.10
17437;DHT22;70275;52.198;5.422;2023-07-29T03:41:20;17.40;83.10
17437;DHT22;70275;52.198;5.422;2023-07-29T03:43:49;17.40;83.10
17437;DHT22;70275;52.198;5.422;2023-07-29T03:46:17;17.40;83.10
17437;DHT22;70275;52.198;5.422;2023-07-29T03:48:48;17.30;83.10
17437;DHT22;70275;52.198;5.422;2023-07-29T03:51:16;17.40;83.10
17437;DHT22;70275;52.198;5.422;2023-07-29T03:53:49;17.40;83.10
17437;DHT22;70275;52.198;5.422;2023-07-29T03:56:18;17.30;83.10
17437;DHT22;70275;52.198;5.422;2023-07-29T03:58:47;17.30;83.10
17437;DHT22;70275;52.198;5.422;2023-07-29T04:01:16;17.30;83.10
17437;DHT22;70275;52.198;5.422;2023-07-29T04:03:45;17.30;83.10
17437;DHT22;70275;52.198;5.422;2023-07-29T04:06:14;17.30;83.10
17437;DHT22;70275;52.198;5.422;2023-07-29T04:08:43;17.30;83.10
17437;DHT22;70275;52.198;5.422;2023-07-29T04:11:15;17.30;83.10
17437;DHT22;70275;52.198;5.422;2023-07-29T04:13:44;17.30;83.10
17437;DHT22;70275;52.198;5.422;2023-07-29T04:16:13;17.20;83.10
17437;DHT22;70275;52.198;5.422;2023-07-29T04:18:42;17.20;83.10
17437;DHT22;70275;52.198;5.422;2023-07-29T04:21:11;17.20;83.10
17437;DHT22;70275;52.198;5.422;2023-07-29T04:23:40;17.30;83.10
17437;DHT22;70275;52.198;5.422;2023-07-29T04:26:09;17.40;83.10
17437;DHT22;70275;52.198;5.422;2023-07-29T04:28:41;17.40;83.10
17437;DHT22;70275;52.198;5.422;2023-07-29T04:31:10;17.40;83.10
17437;DHT22;70275;52.198;5.422;2023-07-29T04:33:39;17.30;83.10
17437;DHT22;70275;52.198;5.422;2023-07-29T04:36:08;17.30;83.10
17437;DHT22;70275;52.198;5.422;2023-07-29T04:38:37;17.20;83.10
17437;DHT22;70275;52.198;5.422;2023-07-29T04:41:06;17.20;83.10
17437;DHT22;70275;52.198;5.422;2023-07-29T04:43:36;17.20;83.10
17437;DHT22;70275;52.198;5.422;2023-07-29T04:46:09;17.20;83.10
17437;DHT22;70275;52.198;5.422;2023-07-29T04:48:38;17.20;83.10
17437;DHT22;70275;52.198;5.422;2023-07-29T04:51:07;17.20;83.10
17437;DHT22;70275;52.198;5.422;2023-07-29T04:53:36;17.20;83.10
17437;DHT22;70275;52.198;5.422;2023-07-29T04:56:05;17.20;83.10
17437;DHT22;70275;52.198;5.422;2023-07-29T04:58:34;17.20;83.10
17437;DHT22;70275;52.198;5.422;2023-07-29T05:01:03;17.20;83.10
17437;DHT22;70275;52.198;5.422;2023-07-29T05:03:35;17.20;83.10
17437;DHT22;70275;52.198;5.422;2023-07-29T05:06:05;17.20;83.10
17437;DHT22;70275;52.198;5.422;2023-07-29T05:08:34;17.20;83.10
17437;DHT22;70275;52.198;5.422;2023-07-29T05:11:03;17.20;83.10
17437;DHT22;70275;52.198;5.422;2023-07-29T05:13:32;17.30;83.10
17437;DHT22;70275;52.198;5.422;2023-07-29T05:16:01;17.30;83.10
17437;DHT22;70275;52.198;5.422;2023-07-29T05:18:30;17.40;83.10
17437;DHT22;70275;52.198;5.422;2023-07-29T05:21:01;17.40;83.10
17437;DHT22;70275;52.198;5.422;2023-07-29T05:23:30;17.40;83.10
17437;DHT22;70275;52.198;5.422;2023-07-29T05:25:59;17.30;83.10
17437;DHT22;70275;52.198;5.422;2023-07-29T05:28:28;17.50;83.10
17437;DHT22;70275;52.198;5.422;2023-07-29T05:31:00;17.50;83.10
17437;DHT22;70275;52.198;5.422;2023-07-29T05:33:30;17.60;83.10
17437;DHT22;70275;52.198;5.422;2023-07-29T05:36:01;17.70;83.10
17437;DHT22;70275;52.198;5.422;2023-07-29T05:38:30;17.70;83.10
17437;DHT22;70275;52.198;5.422;2023-07-29T05:40:59;17.70;83.10
17437;DHT22;70275;52.198;5.422;2023-07-29T05:43:29;17.70;83.10
17437;DHT22;70275;52.198;5.422;2023-07-29T05:45:58;17.90;83.10
17437;DHT22;70275;52.198;5.422;2023-07-29T05:48:27;18.10;82.90
17437;DHT22;70275;52.198;5.422;2023-07-29T05:50:56;17.90;83.10
17437;DHT22;70275;52.198;5.422;2023-07-29T05:53:28;17.80;83.10
17437;DHT22;70275;52.198;5.422;2023-07-29T05:55:57;17.80;83.10
17437;DHT22;70275;52.198;5.422;2023-07-29T05:58:26;17.70;83.10
17437;DHT22;70275;52.198;5.422;2023-07-29T06:00:56;17.90;83.10
17437;DHT22;70275;52.198;5.422;2023-07-29T06:03:25;18.00;83.10
17437;DHT22;70275;52.198;5.422;2023-07-29T06:05:55;18.00;83.10
17437;DHT22;70275;52.198;5.422;2023-07-29T06:08:24;18.20;83.10
17437;DHT22;70275;52.198;5.422;2023-07-29T06:10:56;18.30;82.80
17437;DHT22;70275;52.198;5.422;2023-07-29T06:13:25;18.30;83.00
17437;DHT22;70275;52.198;5.422;2023-07-29T06:15:54;18.40;82.80
17437;DHT22;70275;52.198;5.422;2023-07-29T06:18:23;18.50;82.70
17437;DHT22;70275;52.198;5.422;2023-07-29T06:20:52;18.70;82.40
17437;DHT22;70275;52.198;5.422;2023-07-29T06:23:21;18.90;81.30
17437;DHT22;70275;52.198;5.422;2023-07-29T06:25:50;19.20;80.70
17437;DHT22;70275;52.198;5.422;2023-07-29T06:28:22;19.30;80.00
17437;DHT22;70275;52.198;5.422;2023-07-29T06:30:51;19.00;80.50
17437;DHT22;70275;52.198;5.422;2023-07-29T06:33:20;18.90;81.30
17437;DHT22;70275;52.198;5.422;2023-07-29T06:35:49;18.90;81.30
17437;DHT22;70275;52.198;5.422;2023-07-29T06:38:18;18.90;81.50
17437;DHT22;70275;52.198;5.422;2023-07-29T06:40:47;18.80;81.60
17437;DHT22;70275;52.198;5.422;2023-07-29T06:43:16;18.90;81.70
17437;DHT22;70275;52.198;5.422;2023-07-29T06:45:48;19.10;81.40
17437;DHT22;70275;52.198;5.422;2023-07-29T06:48:17;19.30;80.80
17437;DHT22;70275;52.198;5.422;2023-07-29T06:50:46;19.30;80.40
17437;DHT22;70275;52.198;5.422;2023-07-29T06:53:16;19.50;79.70
17437;DHT22;70275;52.198;5.422;2023-07-29T06:55:45;19.80;79.10
17437;DHT22;70275;52.198;5.422;2023-07-29T06:58:14;19.80;78.70
17437;DHT22;70275;52.198;5.422;2023-07-29T07:00:43;20.00;78.60
17437;DHT22;70275;52.198;5.422;2023-07-29T07:03:14;19.90;78.80
17437;DHT22;70275;52.198;5.422;2023-07-29T07:05:43;19.70;79.30
17437;DHT22;70275;52.198;5.422;2023-07-29T07:08:12;19.50;79.80
17437;DHT22;70275;52.198;5.422;2023-07-29T07:10:41;19.50;80.20
17437;DHT22;70275;52.198;5.422;2023-07-29T07:13:10;19.50;79.80
17437;DHT22;70275;52.198;5.422;2023-07-29T07:15:39;19.90;79.50
17437;DHT22;70275;52.198;5.422;2023-07-29T07:18:08;20.10;77.60
17437;DHT22;70275;52.198;5.422;2023-07-29T07:20:40;20.10;78.20
17437;DHT22;70275;52.198;5.422;2023-07-29T07:23:09;20.10;78.30
17437;DHT22;70275;52.198;5.422;2023-07-29T07:25:39;20.40;77.50
17437;DHT22;70275;52.198;5.422;2023-07-29T07:28:08;20.40;77.80
17437;DHT22;70275;52.198;5.422;2023-07-29T07:30:39;20.30;77.30
17437;DHT22;70275;52.198;5.422;2023-07-29T07:33:09;19.90;78.60
17437;DHT22;70275;52.198;5.422;2023-07-29T07:35:41;19.80;79.50
17437;DHT22;70275;52.198;5.422;2023-07-29T07:38:10;19.80;79.70
17437;DHT22;70275;52.198;5.422;2023-07-29T07:40:39;19.70;79.50
17437;DHT22;70275;52.198;5.422;2023-07-29T07:43:08;19.80;79.40
17437;DHT22;70275;52.198;5.422;2023-07-29T07:45:37;19.80;79.50
17437;DHT22;70275;52.198;5.422;2023-07-29T07:48:06;20.00;79.00
17437;DHT22;70275;52.198;5.422;2023-07-29T07:50:37;20.00;79.10
17437;DHT22;70275;52.198;5.422;2023-07-29T07:53:09;20.00;78.90
17437;DHT22;70275;52.198;5.422;2023-07-29T07:55:38;20.20;78.80
17437;DHT22;70275;52.198;5.422;2023-07-29T07:58:07;20.30;78.10
17437;DHT22;70275;52.198;5.422;2023-07-29T08:00:36;20.20;78.40
17437;DHT22;70275;52.198;5.422;2023-07-29T08:03:05;20.20;78.70
17437;DHT22;70275;52.198;5.422;2023-07-29T08:05:34;20.30;78.90
17437;DHT22;70275;52.198;5.422;2023-07-29T08:08:03;20.60;77.70
17437;DHT22;70275;52.198;5.422;2023-07-29T08:10:35;20.50;77.90
17437;DHT22;70275;52.198;5.422;2023-07-29T08:13:04;20.40;78.00
17437;DHT22;70275;52.198;5.422;2023-07-29T08:15:33;20.50;77.60
17437;DHT22;70275;52.198;5.422;2023-07-29T08:18:02;20.50;77.40
17437;DHT22;70275;52.198;5.422;2023-07-29T08:20:31;20.80;77.20
17437;DHT22;70275;52.198;5.422;2023-07-29T08:23:01;21.00;76.50
17437;DHT22;70275;52.198;5.422;2023-07-29T08:25:30;20.70;76.30
17437;DHT22;70275;52.198;5.422;2023-07-29T08:28:01;20.20;77.50
17437;DHT22;70275;52.198;5.422;2023-07-29T08:30:30;20.10;78.10
17437;DHT22;70275;52.198;5.422;2023-07-29T08:32:59;20.40;77.70
17437;DHT22;70275;52.198;5.422;2023-07-29T08:35:28;20.80;76.40
17437;DHT22;70275;52.198;5.422;2023-07-29T08:37:57;20.80;75.90
17437;DHT22;70275;52.198;5.422;2023-07-29T08:40:29;20.70;75.70
17437;DHT22;70275;52.198;5.422;2023-07-29T08:43:04;20.60;76.20
17437;DHT22;70275;52.198;5.422;2023-07-29T08:45:35;21.00;75.70
17437;DHT22;70275;52.198;5.422;2023-07-29T08:48:08;21.40;74.50
17437;DHT22;70275;52.198;5.422;2023-07-29T08:50:39;21.70;72.20
17437;DHT22;70275;52.198;5.422;2023-07-29T08:53:10;21.60;72.50
17437;DHT22;70275;52.198;5.422;2023-07-29T08:55:39;21.30;72.50
17437;DHT22;70275;52.198;5.422;2023-07-29T08:58:11;21.20;74.50
17437;DHT22;70275;52.198;5.422;2023-07-29T09:00:41;21.40;73.60
17437;DHT22;70275;52.198;5.422;2023-07-29T09:03:10;21.20;74.50
17437;DHT22;70275;52.198;5.422;2023-07-29T09:05:39;21.30;73.90
17437;DHT22;70275;52.198;5.422;2023-07-29T09:08:08;21.10;75.10
17437;DHT22;70275;52.198;5.422;2023-07-29T09:10:38;21.10;75.80
17437;DHT22;70275;52.198;5.422;2023-07-29T09:13:07;21.10;74.70
17437;DHT22;70275;52.198;5.422;2023-07-29T09:15:39;20.70;76.50
17437;DHT22;70275;52.198;5.422;2023-07-29T09:18:14;20.50;77.00
17437;DHT22;70275;52.198;5.422;2023-07-29T09:20:46;20.50;77.80
17437;DHT22;70275;52.198;5.422;2023-07-29T09:23:16;20.60;78.30
17437;DHT22;70275;52.198;5.422;2023-07-29T09:25:47;21.00;76.80
17437;DHT22;70275;52.198;5.422;2023-07-29T09:28:19;21.30;75.40
17437;DHT22;70275;52.198;5.422;2023-07-29T09:30:49;21.00;75.00
17437;DHT22;70275;52.198;5.422;2023-07-29T09:33:18;21.20;74.90
17437;DHT22;70275;52.198;5.422;2023-07-29T09:35:47;21.40;73.60
17437;DHT22;70275;52.198;5.422;2023-07-29T09:38:16;21.50;73.40
17437;DHT22;70275;52.198;5.422;2023-07-29T09:40:45;21.70;72.10
17437;DHT22;70275;52.198;5.422;2023-07-29T09:43:19;21.80;71.20
17437;DHT22;70275;52.198;5.422;2023-07-29T09:45:54;22.00;69.80
17437;DHT22;70275;52.198;5.422;2023-07-29T09:48:23;22.00;70.40
17437;DHT22;70275;52.198;5.422;2023-07-29T09:50:52;22.00;69.40
17437;DHT22;70275;52.198;5.422;2023-07-29T09:53:21;21.70;70.70
17437;DHT22;70275;52.198;5.422;2023-07-29T09:55:50;21.60;71.80
17437;DHT22;70275;52.198;5.422;2023-07-29T09:58:28;21.40;72.60
17437;DHT22;70275;52.198;5.422;2023-07-29T10:00:57;21.20;73.70
17437;DHT22;70275;52.198;5.422;2023-07-29T10:03:27;20.90;74.20
17437;DHT22;70275;52.198;5.422;2023-07-29T10:06:00;21.00;74.40
17437;DHT22;70275;52.198;5.422;2023-07-29T10:08:31;21.20;74.30
17437;DHT22;70275;52.198;5.422;2023-07-29T10:11:01;21.30;74.20
17437;DHT22;70275;52.198;5.422;2023-07-29T10:13:33;21.20;74.40
17437;DHT22;70275;52.198;5.422;2023-07-29T10:16:03;21.30;73.60
17437;DHT22;70275;52.198;5.422;2023-07-29T10:18:33;21.40;74.40
17437;DHT22;70275;52.198;5.422;2023-07-29T10:21:03;21.70;72.90
17437;DHT22;70275;52.198;5.422;2023-07-29T10:23:38;21.90;71.90
17437;DHT22;70275;52.198;5.422;2023-07-29T10:26:13;22.20;70.10
17437;DHT22;70275;52.198;5.422;2023-07-29T10:28:47;22.20;70.20
17437;DHT22;70275;52.198;5.422;2023-07-29T10:31:19;22.10;70.80
17437;DHT22;70275;52.198;5.422;2023-07-29T10:33:51;21.90;72.10
17437;DHT22;70275;52.198;5.422;2023-07-29T10:36:20;21.50;72.70
17437;DHT22;70275;52.198;5.422;2023-07-29T10:38:49;21.50;72.70
17437;DHT22;70275;52.198;5.422;2023-07-29T10:41:19;21.10;76.50
17437;DHT22;70275;52.198;5.422;2023-07-29T10:43:51;20.10;80.60
17437;DHT22;70275;52.198;5.422;2023-07-29T10:46:21;19.40;83.10
17437;DHT22;70275;52.198;5.422;2023-07-29T10:48:55;19.20;83.10
17437;DHT22;70275;52.198;5.422;2023-07-29T10:51:27;19.40;83.10
17437;DHT22;70275;52.198;5.422;2023-07-29T10:53:59;19.70;83.10
17437;DHT22;70275;52.198;5.422;2023-07-29T10:56:31;19.60;83.10
17437;DHT22;70275;52.198;5.422;2023-07-29T10:59:33;19.40;83.10
17437;DHT22;70275;52.198;5.422;2023-07-29T11:02:03;19.50;83.10
17437;DHT22;70275;52.198;5.422;2023-07-29T11:04:48;19.40;83.10
17437;DHT22;70275;52.198;5.422;2023-07-29T11:07:20;19.80;83.10
17437;DHT22;70275;52.198;5.422;2023-07-29T11:09:59;19.90;83.10
17437;DHT22;70275;52.198;5.422;2023-07-29T11:12:37;20.00;83.10
17437;DHT22;70275;52.198;5.422;2023-07-29T11:15:19;20.10;83.10
17437;DHT22;70275;52.198;5.422;2023-07-29T11:17:51;20.10;83.10
17437;DHT22;70275;52.198;5.422;2023-07-29T11:20:22;20.10;83.10
17437;DHT22;70275;52.198;5.422;2023-07-29T11:22:53;20.30;83.10
17437;DHT22;70275;52.198;5.422;2023-07-29T11:25:24;20.30;83.10
17437;DHT22;70275;52.198;5.422;2023-07-29T11:27:54;20.10;83.00
17437;DHT22;70275;52.198;5.422;2023-07-29T11:30:27;19.90;83.10
17437;DHT22;70275;52.198;5.422;2023-07-29T11:32:57;19.90;83.10
17437;DHT22;70275;52.198;5.422;2023-07-29T11:35:27;19.60;83.10
17437;DHT22;70275;52.198;5.422;2023-07-29T11:37:56;19.30;83.10
17437;DHT22;70275;52.198;5.422;2023-07-29T11:40:25;19.30;83.10
17437;DHT22;70275;52.198;5.422;2023-07-29T11:42:54;19.10;83.10
17437;DHT22;70275;52.198;5.422;2023-07-29T11:45:23;19.20;83.10
17437;DHT22;70275;52.198;5.422;2023-07-29T11:47:55;19.10;83.10
17437;DHT22;70275;52.198;5.422;2023-07-29T11:50:24;19.10;83.10
17437;DHT22;70275;52.198;5.422;2023-07-29T11:52:54;19.30;83.10
17437;DHT22;70275;52.198;5.422;2023-07-29T11:55:23;19.30;83.10
17437;DHT22;70275;52.198;5.422;2023-07-29T11:57:53;19.50;83.10
17437;DHT22;70275;52.198;5.422;2023-07-29T12:00:22;19.80;83.10
17437;DHT22;70275;52.198;5.422;2023-07-29T12:02:54;20.00;82.80
17437;DHT22;70275;52.198;5.422;2023-07-29T12:05:25;20.90;81.40
17437;DHT22;70275;52.198;5.422;2023-07-29T12:07:54;21.10;80.10
17437;DHT22;70275;52.198;5.422;2023-07-29T12:10:25;22.10;79.80
17437;DHT22;70275;52.198;5.422;2023-07-29T12:12:55;22.40;75.10
17437;DHT22;70275;52.198;5.422;2023-07-29T12:15:25;23.00;75.90
17437;DHT22;70275;52.198;5.422;2023-07-29T12:17:59;23.20;71.80
17437;DHT22;70275;52.198;5.422;2023-07-29T12:20:29;22.70;73.90
17437;DHT22;70275;52.198;5.422;2023-07-29T12:22:59;23.30;72.20
17437;DHT22;70275;52.198;5.422;2023-07-29T12:25:31;22.70;72.00
17437;DHT22;70275;52.198;5.422;2023-07-29T12:28:04;22.40;75.60
17437;DHT22;70275;52.198;5.422;2023-07-29T12:30:34;22.90;72.10
17437;DHT22;70275;52.198;5.422;2023-07-29T12:33:29;23.00;71.80
17437;DHT22;70275;52.198;5.422;2023-07-29T12:35:59;22.50;73.40
17437;DHT22;70275;52.198;5.422;2023-07-29T12:38:28;22.20;73.40
17437;DHT22;70275;52.198;5.422;2023-07-29T12:40:58;21.80;74.60
17437;DHT22;70275;52.198;5.422;2023-07-29T12:43:28;22.10;74.00
17437;DHT22;70275;52.198;5.422;2023-07-29T12:45:57;21.60;75.20
17437;DHT22;70275;52.198;5.422;2023-07-29T12:48:29;21.70;75.40
17437;DHT22;70275;52.198;5.422;2023-07-29T12:50:58;22.00;73.30
17437;DHT22;70275;52.198;5.422;2023-07-29T12:53:27;22.30;73.60
17437;DHT22;70275;52.198;5.422;2023-07-29T12:55:56;23.00;71.70
17437;DHT22;70275;52.198;5.422;2023-07-29T12:58:26;23.70;69.50
17437;DHT22;70275;52.198;5.422;2023-07-29T13:00:55;24.40;66.00
17437;DHT22;70275;52.198;5.422;2023-07-29T13:03:24;23.90;68.10
17437;DHT22;70275;52.198;5.422;2023-07-29T13:05:57;24.00;66.30
17437;DHT22;70275;52.198;5.422;2023-07-29T13:08:26;23.60;66.90
17437;DHT22;70275;52.198;5.422;2023-07-29T13:10:55;23.20;68.30
17437;DHT22;70275;52.198;5.422;2023-07-29T13:13:24;22.80;68.70
17437;DHT22;70275;52.198;5.422;2023-07-29T13:15:53;22.10;70.30
17437;DHT22;70275;52.198;5.422;2023-07-29T13:18:22;22.40;72.30
17437;DHT22;70275;52.198;5.422;2023-07-29T13:20:51;23.00;68.80
17437;DHT22;70275;52.198;5.422;2023-07-29T13:23:22;23.30;69.00
17437;DHT22;70275;52.198;5.422;2023-07-29T13:25:52;23.00;68.50
17437;DHT22;70275;52.198;5.422;2023-07-29T13:28:21;23.70;68.10
17437;DHT22;70275;52.198;5.422;2023-07-29T13:30:50;24.30;64.60
17437;DHT22;70275;52.198;5.422;2023-07-29T13:33:19;25.10;62.90
17437;DHT22;70275;52.198;5.422;2023-07-29T13:35:48;25.30;60.90
17437;DHT22;70275;52.198;5.422;2023-07-29T13:38:17;25.20;62.20
17437;DHT22;70275;52.198;5.422;2023-07-29T13:40:49;25.70;61.00
17437;DHT22;70275;52.198;5.422;2023-07-29T13:43:18;26.00;59.40
17437;DHT22;70275;52.198;5.422;2023-07-29T13:45:47;25.70;59.20
17437;DHT22;70275;52.198;5.422;2023-07-29T13:48:15;25.10;61.40
17437;DHT22;70275;52.198;5.422;2023-07-29T13:50:44;25.20;61.40
17437;DHT22;70275;52.198;5.422;2023-07-29T13:53:13;25.50;60.20
17437;DHT22;70275;52.198;5.422;2023-07-29T13:55:42;25.60;59.90
17437;DHT22;70275;52.198;5.422;2023-07-29T13:58:14;25.10;59.70
17437;DHT22;70275;52.198;5.422;2023-07-29T14:00:43;25.30;59.30
17437;DHT22;70275;52.198;5.422;2023-07-29T14:03:12;25.00;60.20
17437;DHT22;70275;52.198;5.422;2023-07-29T14:05:41;24.90;59.30
17437;DHT22;70275;52.198;5.422;2023-07-29T14:08:10;24.30;62.10
17437;DHT22;70275;52.198;5.422;2023-07-29T14:10:39;24.20;64.20
17437;DHT22;70275;52.198;5.422;2023-07-29T14:13:08;24.10;61.70
17437;DHT22;70275;52.198;5.422;2023-07-29T14:15:39;25.00;59.20
17437;DHT22;70275;52.198;5.422;2023-07-29T14:18:08;26.10;56.80
17437;DHT22;70275;52.198;5.422;2023-07-29T14:20:37;26.00;55.00
17437;DHT22;71884;52.198;5.422;2023-07-29T14:23:06;26.70;56.60
17437;DHT22;71884;52.198;5.422;2023-07-29T14:25:35;27.20;55.00
17437;DHT22;71884;52.198;5.422;2023-07-29T14:28:04;27.40;54.40
17437;DHT22;71884;52.198;5.422;2023-07-29T14:30:34;27.50;54.20
17437;DHT22;71884;52.198;5.422;2023-07-29T14:33:06;27.50;54.00
17437;DHT22;71884;52.198;5.422;2023-07-29T14:35:36;27.50;54.30
17437;DHT22;71884;52.198;5.422;2023-07-29T14:38:05;27.50;54.50
17437;DHT22;71884;52.198;5.422;2023-07-29T14:40:34;27.30;53.80
17437;DHT22;71884;52.198;5.422;2023-07-29T14:43:03;27.30;53.60
17437;DHT22;71884;52.198;5.422;2023-07-29T14:45:32;27.40;53.50
17437;DHT22;71884;52.198;5.422;2023-07-29T14:48:01;27.40;53.90
17437;DHT22;71884;52.198;5.422;2023-07-29T14:50:33;27.50;53.90
17437;DHT22;71884;52.198;5.422;2023-07-29T14:53:02;27.40;54.10
17437;DHT22;71884;52.198;5.422;2023-07-29T14:55:31;27.30;53.00
17437;DHT22;71884;52.198;5.422;2023-07-29T14:58:00;27.30;53.10
17437;DHT22;71884;52.198;5.422;2023-07-29T15:00:29;27.30;52.80
17437;DHT22;71884;52.198;5.422;2023-07-29T15:02:58;27.30;52.20
17437;DHT22;71884;52.198;5.422;2023-07-29T15:05:27;27.20;50.80
17437;DHT22;71884;52.198;5.422;2023-07-29T15:07:59;27.10;51.00
17437;DHT22;71884;52.198;5.422;2023-07-29T15:10:28;27.00;51.10
17437;DHT22;71884;52.198;5.422;2023-07-29T15:12:57;26.60;51.20
17437;DHT22;71884;52.198;5.422;2023-07-29T15:15:26;26.60;52.20
17437;DHT22;71884;52.198;5.422;2023-07-29T15:17:55;26.50;52.00
17437;DHT22;71884;52.198;5.422;2023-07-29T15:20:24;26.50;52.90
17437;DHT22;71884;52.198;5.422;2023-07-29T15:22:53;26.50;53.10
17437;DHT22;71884;52.198;5.422;2023-07-29T15:25:25;26.60;53.20
17437;DHT22;71884;52.198;5.422;2023-07-29T15:27:54;26.70;53.30
17437;DHT22;71884;52.198;5.422;2023-07-29T15:30:23;26.70;53.20
17437;DHT22;71884;52.198;5.422;2023-07-29T15:32:52;26.80;52.70
17437;DHT22;71884;52.198;5.422;2023-07-29T15:35:22;26.80;52.80
17437;DHT22;71884;52.198;5.422;2023-07-29T15:37:51;26.80;52.50
17437;DHT22;71884;52.198;5.422;2023-07-29T15:40:20;26.80;52.60
17437;DHT22;71884;52.198;5.422;2023-07-29T15:42:51;26.90;52.70
17437;DHT22;71884;52.198;5.422;2023-07-29T15:45:20;26.90;52.60
17437;DHT22;71884;52.198;5.422;2023-07-29T15:47:49;27.00;52.40